sensor_id;sensor_type;location;lat;lon;timestamp;pressure;altitude;pressure_sealevel;temperature;humidity
3960;BME280;1994;48.640;8.894;2023-04-08T00:02:13;96354.00;;;8.86;97.23
3960;BME280;1994;48.640;8.894;2023-04-08T00:04:39;96354.00;;;8.86;97.10
3960;BME280;1994;48.640;8.894;2023-04-08T00:07:04;96354.44;;;8.83;96.56
3960;BME280;1994;48.640;8.894;2023-04-08T00:09:30;96352.41;;;8.85;96.69
3960;BME280;1994;48.640;8.894;2023-04-08T00:11:56;96348.88;;;8.79;96.75
3960;BME280;1994;48.640;8.894;2023-04-08T00:14:22;96355.88;;;8.79;97.25
3960;BME280;1994;48.640;8.894;2023-04-08T00:16:48;96354.72;;;8.75;97.07
3960;BME280;1994;48.640;8.894;2023-04-08T00:19:13;96354.94;;;8.73;97.21
3960;BME280;1994;48.640;8.894;2023-04-08T00:21:39;96359.31;;;8.73;97.64
3960;BME280;1994;48.640;8.894;2023-04-08T00:24:05;96363.69;;;8.72;97.40
3960;BME280;1994;48.640;8.894;2023-04-08T00:26:31;96365.63;;;8.77;97.36
3960;BME280;1994;48.640;8.894;2023-04-08T00:28:57;96375.09;;;8.83;96.97
3960;BME280;1994;48.640;8.894;2023-04-08T00:31:23;96368.34;;;8.82;96.98
3960;BME280;1994;48.640;8.894;2023-04-08T00:33:49;96373.09;;;8.85;97.35
3960;BME280;1994;48.640;8.894;2023-04-08T00:36:15;96377.09;;;8.81;97.36
3960;BME280;1994;48.640;8.894;2023-04-08T00:38:41;96371.16;;;8.80;97.46
3960;BME280;1994;48.640;8.894;2023-04-08T00:41:06;96370.81;;;8.77;97.18
3960;BME280;1994;48.640;8.894;2023-04-08T00:43:32;96368.78;;;8.79;97.25
3960;BME280;1994;48.640;8.894;2023-04-08T00:45:58;96377.97;;;8.75;96.75
3960;BME280;1994;48.640;8.894;2023-04-08T00:48:24;96379.97;;;8.73;97.02
3960;BME280;1994;48.640;8.894;2023-04-08T00:50:49;96380.25;;;8.65;96.64
3960;BME280;1994;48.640;8.894;2023-04-08T00:53:19;96374.88;;;8.66;96.81
3960;BME280;1994;48.640;8.894;2023-04-08T00:55:45;96375.69;;;8.67;96.28
3960;BME280;1994;48.640;8.894;2023-04-08T00:58:12;96374.81;;;8.73;96.10
3960;BME280;1994;48.640;8.894;2023-04-08T01:00:50;96374.38;;;8.76;95.75
3960;BME280;1994;48.640;8.894;2023-04-08T01:03:49;96375.22;;;8.70;95.46
3960;BME280;1994;48.640;8.894;2023-04-08T01:09:13;96371.22;;;8.74;95.10
3960;BME280;1994;48.640;8.894;2023-04-08T01:11:43;96369.19;;;8.76;94.90
3960;BME280;1994;48.640;8.894;2023-04-08T01:14:19;96377.41;;;8.73;95.38
3960;BME280;1994;48.640;8.894;2023-04-08T01:16:45;96373.16;;;8.78;95.21
3960;BME280;1994;48.640;8.894;2023-04-08T01:19:31;96371.56;;;8.77;95.11
3960;BME280;1994;48.640;8.894;2023-04-08T01:24:47;96382.41;;;8.68;95.45
3960;BME280;1994;48.640;8.894;2023-04-08T01:27:15;96379.25;;;8.66;95.13
3960;BME280;1994;48.640;8.894;2023-04-08T01:29:42;96380.09;;;8.60;95.51
3960;BME280;1994;48.640;8.894;2023-04-08T01:32:10;96376.53;;;8.61;95.66
3960;BME280;1994;48.640;8.894;2023-04-08T01:34:37;96369.34;;;8.63;94.98
3960;BME280;1994;48.640;8.894;2023-04-08T01:37:05;96377.97;;;8.75;95.45
3960;BME280;1994;48.640;8.894;2023-04-08T01:39:33;96374.38;;;8.76;95.34
3960;BME280;1994;48.640;8.894;2023-04-08T01:42:00;96380.34;;;8.76;95.14
3960;BME280;1994;48.640;8.894;2023-04-08T01:44:27;96371.94;;;8.81;95.35
3960;BME280;1994;48.640;8.894;2023-04-08T01:46:54;96373.50;;;8.82;95.36
3960;BME280;1994;48.640;8.894;2023-04-08T01:49:21;96372.94;;;8.80;95.37
3960;BME280;1994;48.640;8.894;2023-04-08T01:51:48;96370.06;;;8.70;95.26
3960;BME280;1994;48.640;8.894;2023-04-08T01:54:16;96364.03;;;8.76;95.29
3960;BME280;1994;48.640;8.894;2023-04-08T01:56:43;96371.38;;;8.79;95.52
3960;BME280;1994;48.640;8.894;2023-04-08T01:59:13;96370.34;;;8.80;95.49
3960;BME280;1994;48.640;8.894;2023-04-08T02:01:42;96375.03;;;8.71;95.52
3960;BME280;1994;48.640;8.894;2023-04-08T02:04:09;96370.88;;;8.70;95.23
3960;BME280;1994;48.640;8.894;2023-04-08T02:06:35;96371.22;;;8.74;95.82
3960;BME280;1994;48.640;8.894;2023-04-08T02:09:03;96367.63;;;8.75;96.18
3960;BME280;1994;48.640;8.894;2023-04-08T02:11:30;96376.38;;;8.74;96.12
3960;BME280;1994;48.640;8.894;2023-04-08T02:13:56;96365.63;;;8.77;96.15
3960;BME280;1994;48.640;8.894;2023-04-08T02:16:32;96365.91;;;8.69;95.71
3960;BME280;1994;48.640;8.894;2023-04-08T02:19:50;96374.47;;;8.69;95.49
3960;BME280;1994;48.640;8.894;2023-04-08T02:24:59;96370.94;;;8.64;95.74
3960;BME280;1994;48.640;8.894;2023-04-08T02:27:26;96373.25;;;8.72;95.53
3960;BME280;1994;48.640;8.894;2023-04-08T02:29:54;96371.06;;;8.69;95.84
3960;BME280;1994;48.640;8.894;2023-04-08T02:32:23;96368.84;;;8.72;95.50
3960;BME280;1994;48.640;8.894;2023-04-08T02:34:50;96376.59;;;8.72;95.31
3960;BME280;1994;48.640;8.894;2023-04-08T02:37:16;96373.66;;;8.69;95.80
3960;BME280;1994;48.640;8.894;2023-04-08T02:39:42;96381.97;;;8.71;95.52
3960;BME280;1994;48.640;8.894;2023-04-08T02:42:08;96373.31;;;8.65;95.35
3960;BME280;1994;48.640;8.894;2023-04-08T02:44:34;96373.66;;;8.69;95.45
3960;BME280;1994;48.640;8.894;2023-04-08T02:46:59;96371.00;;;8.57;95.14
3960;BME280;1994;48.640;8.894;2023-04-08T02:49:25;96369.00;;;8.59;94.92
3960;BME280;1994;48.640;8.894;2023-04-08T02:51:51;96373.72;;;8.62;94.94
3960;BME280;1994;48.640;8.894;2023-04-08T02:54:16;96369.34;;;8.63;94.43
3960;BME280;1994;48.640;8.894;2023-04-08T02:56:42;96370.94;;;8.64;94.34
3960;BME280;1994;48.640;8.894;2023-04-08T02:59:08;96363.63;;;8.61;94.69
3960;BME280;1994;48.640;8.894;2023-04-08T03:01:34;96371.38;;;8.61;94.70
3960;BME280;1994;48.640;8.894;2023-04-08T03:03:59;96365.47;;;8.54;94.80
3960;BME280;1994;48.640;8.894;2023-04-08T03:06:25;96363.84;;;8.59;95.07
3960;BME280;1994;48.640;8.894;2023-04-08T03:08:51;96379.81;;;8.50;94.76
3960;BME280;1994;48.640;8.894;2023-04-08T03:11:17;96377.00;;;8.51;94.72
3960;BME280;1994;48.640;8.894;2023-04-08T03:13:42;96371.50;;;8.48;94.76
3960;BME280;1994;48.640;8.894;2023-04-08T03:16:08;96368.34;;;8.46;94.66
3960;BME280;1994;48.640;8.894;2023-04-08T03:18:34;96374.50;;;8.45;94.47
3960;BME280;1994;48.640;8.894;2023-04-08T03:21:00;96371.94;;;8.45;94.14
3960;BME280;1994;48.640;8.894;2023-04-08T03:23:27;96371.94;;;8.45;93.84
3960;BME280;1994;48.640;8.894;2023-04-08T03:25:53;96374.78;;;8.37;93.65
3960;BME280;1994;48.640;8.894;2023-04-08T03:28:19;96371.13;;;8.44;93.28
3960;BME280;1994;48.640;8.894;2023-04-08T03:30:44;96376.66;;;8.48;93.16
3960;BME280;1994;48.640;8.894;2023-04-08T03:33:13;96372.78;;;8.39;92.81
3960;BME280;1994;48.640;8.894;2023-04-08T03:35:39;96376.19;;;8.33;92.90
3960;BME280;1994;48.640;8.894;2023-04-08T03:38:04;96372.34;;;8.42;92.66
3960;BME280;1994;48.640;8.894;2023-04-08T03:40:30;96375.94;;;8.41;93.25
3960;BME280;1994;48.640;8.894;2023-04-08T03:42:56;96379.53;;;8.40;93.14
3960;BME280;1994;48.640;8.894;2023-04-08T03:45:22;96375.94;;;8.41;92.64
3960;BME280;1994;48.640;8.894;2023-04-08T03:47:47;96374.06;;;8.30;92.72
3960;BME280;1994;48.640;8.894;2023-04-08T03:50:13;96378.06;;;8.26;92.92
3960;BME280;1994;48.640;8.894;2023-04-08T03:52:39;96374.06;;;8.30;93.00
3960;BME280;1994;48.640;8.894;2023-04-08T03:55:05;96376.63;;;8.30;93.49
3960;BME280;1994;48.640;8.894;2023-04-08T03:57:31;96372.47;;;8.29;93.41
3960;BME280;1994;48.640;8.894;2023-04-08T03:59:57;96376.06;;;8.28;93.13
3960;BME280;1994;48.640;8.894;2023-04-08T04:02:22;96373.34;;;8.23;93.44
3960;BME280;1994;48.640;8.894;2023-04-08T04:04:48;96369.31;;;8.27;93.30
3960;BME280;1994;48.640;8.894;2023-04-08T04:07:14;96374.41;;;8.33;93.51
3960;BME280;1994;48.640;8.894;2023-04-08T04:09:39;96378.22;;;8.31;93.40
3960;BME280;1994;48.640;8.894;2023-04-08T04:12:05;96377.19;;;8.32;92.84
3960;BME280;1994;48.640;8.894;2023-04-08T04:14:31;96377.41;;;8.30;92.17
3960;BME280;1994;48.640;8.894;2023-04-08T04:16:57;96377.66;;;8.29;92.50
3960;BME280;1994;48.640;8.894;2023-04-08T04:19:22;96381.16;;;8.34;92.70
3960;BME280;1994;48.640;8.894;2023-04-08T04:21:48;96380.38;;;8.34;92.27
3960;BME280;1994;48.640;8.894;2023-04-08T04:24:14;96385.53;;;8.34;92.81
3960;BME280;1994;48.640;8.894;2023-04-08T04:26:40;96382.72;;;8.35;93.36
3960;BME280;1994;48.640;8.894;2023-04-08T04:29:06;96383.13;;;8.39;93.12
3960;BME280;1994;48.640;8.894;2023-04-08T04:31:32;96390.97;;;8.44;92.92
3960;BME280;1994;48.640;8.894;2023-04-08T04:33:58;96393.84;;;8.36;92.66
3960;BME280;1994;48.640;8.894;2023-04-08T04:36:23;96401.19;;;8.39;93.34
3960;BME280;1994;48.640;8.894;2023-04-08T04:38:49;96397.06;;;8.31;94.01
3960;BME280;1994;48.640;8.894;2023-04-08T04:41:16;96406.19;;;8.34;93.81
3960;BME280;1994;48.640;8.894;2023-04-08T04:43:42;96402.16;;;8.38;94.26
3960;BME280;1994;48.640;8.894;2023-04-08T04:46:08;96404.31;;;8.41;94.11
3960;BME280;1994;48.640;8.894;2023-04-08T04:48:34;96399.72;;;8.43;93.51
3960;BME280;1994;48.640;8.894;2023-04-08T04:51:02;96405.75;;;8.37;92.69
3960;BME280;1994;48.640;8.894;2023-04-08T04:53:28;96402.41;;;8.36;92.86
3960;BME280;1994;48.640;8.894;2023-04-08T04:55:57;96404.53;;;8.39;93.02
3960;BME280;1994;48.640;8.894;2023-04-08T04:58:25;96410.25;;;8.41;93.07
3960;BME280;1994;48.640;8.894;2023-04-08T05:00:51;96411.06;;;8.42;93.01
3960;BME280;1994;48.640;8.894;2023-04-08T05:03:17;96405.34;;;8.40;93.11
3960;BME280;1994;48.640;8.894;2023-04-08T05:05:42;96410.34;;;8.35;92.97
3960;BME280;1994;48.640;8.894;2023-04-08T05:08:08;96406.97;;;8.34;92.79
3960;BME280;1994;48.640;8.894;2023-04-08T05:10:34;96407.44;;;8.25;93.17
3960;BME280;1994;48.640;8.894;2023-04-08T05:12:59;96420.19;;;8.13;93.44
3960;BME280;1994;48.640;8.894;2023-04-08T05:15:25;96415.88;;;8.07;93.72
3960;BME280;1994;48.640;8.894;2023-04-08T05:17:51;96417.22;;;8.16;93.94
3960;BME280;1994;48.640;8.894;2023-04-08T05:20:17;96430.09;;;8.23;93.30
3960;BME280;1994;48.640;8.894;2023-04-08T05:22:42;96422.16;;;8.18;93.56
3960;BME280;1994;48.640;8.894;2023-04-08T05:25:10;96419.34;;;8.26;93.54
3960;BME280;1994;48.640;8.894;2023-04-08T05:27:37;96424.81;;;8.36;93.69
3960;BME280;1994;48.640;8.894;2023-04-08T05:30:05;96422.03;;;8.37;93.22
3960;BME280;1994;48.640;8.894;2023-04-08T05:32:31;96424.25;;;8.34;93.63
3960;BME280;1994;48.640;8.894;2023-04-08T05:34:57;96424.81;;;8.36;93.43
3960;BME280;1994;48.640;8.894;2023-04-08T05:37:23;96425.97;;;8.40;93.07
3960;BME280;1994;48.640;8.894;2023-04-08T05:39:48;96428.72;;;8.45;92.79
3960;BME280;1994;48.640;8.894;2023-04-08T05:42:14;96435.81;;;8.49;92.86
3960;BME280;1994;48.640;8.894;2023-04-08T05:44:40;96431.00;;;8.53;93.20
3960;BME280;1994;48.640;8.894;2023-04-08T05:47:08;96439.56;;;8.53;92.59
3960;BME280;1994;48.640;8.894;2023-04-08T05:49:34;96432.19;;;8.57;93.37
3960;BME280;1994;48.640;8.894;2023-04-08T05:52:00;96438.50;;;8.61;93.59
3960;BME280;1994;48.640;8.894;2023-04-08T05:54:26;96436.91;;;8.60;92.93
3960;BME280;1994;48.640;8.894;2023-04-08T05:56:52;96443.22;;;8.64;92.36
3960;BME280;1994;48.640;8.894;2023-04-08T05:59:17;96434.91;;;8.62;91.97
3960;BME280;1994;48.640;8.894;2023-04-08T06:01:43;96436.03;;;8.66;92.02
3960;BME280;1994;48.640;8.894;2023-04-08T06:04:09;96440.50;;;8.59;91.68
3960;BME280;1994;48.640;8.894;2023-04-08T06:06:37;96440.06;;;8.62;92.23
3960;BME280;1994;48.640;8.894;2023-04-08T06:09:04;96447.19;;;8.66;92.30
3960;BME280;1994;48.640;8.894;2023-04-08T06:11:30;96458.97;;;8.80;91.93
3960;BME280;1994;48.640;8.894;2023-04-08T06:13:56;96463.78;;;8.77;91.91
3960;BME280;1994;48.640;8.894;2023-04-08T06:16:22;96456.59;;;8.79;91.75
3960;BME280;1994;48.640;8.894;2023-04-08T06:18:48;96456.16;;;8.82;91.16
3960;BME280;1994;48.640;8.894;2023-04-08T06:21:13;96461.03;;;8.72;91.17
3960;BME280;1994;48.640;8.894;2023-04-08T06:23:39;96462.06;;;8.89;90.64
3960;BME280;1994;48.640;8.894;2023-04-08T06:26:05;96460.53;;;8.81;90.34
3960;BME280;1994;48.640;8.894;2023-04-08T06:28:31;96468.44;;;8.86;90.52
3960;BME280;1994;48.640;8.894;2023-04-08T06:30:58;96469.09;;;9.00;90.13
3960;BME280;1994;48.640;8.894;2023-04-08T06:33:23;96468.34;;;8.93;90.17
3960;BME280;1994;48.640;8.894;2023-04-08T06:35:49;96469.09;;;9.00;89.85
3960;BME280;1994;48.640;8.894;2023-04-08T06:38:15;96473.41;;;9.06;89.63
3960;BME280;1994;48.640;8.894;2023-04-08T06:40:41;96468.66;;;9.03;90.11
3960;BME280;1994;48.640;8.894;2023-04-08T06:43:07;96471.25;;;9.03;90.60
3960;BME280;1994;48.640;8.894;2023-04-08T06:45:33;96475.69;;;9.14;89.91
3960;BME280;1994;48.640;8.894;2023-04-08T06:47:59;96470.97;;;9.11;90.33
3960;BME280;1994;48.640;8.894;2023-04-08T06:50:25;96478.44;;;9.19;90.08
3960;BME280;1994;48.640;8.894;2023-04-08T06:52:51;96480.59;;;9.22;90.32
3960;BME280;1994;48.640;8.894;2023-04-08T06:55:17;96479.56;;;9.23;89.11
3960;BME280;1994;48.640;8.894;2023-04-08T06:57:43;96482.88;;;9.12;88.70
3960;BME280;1994;48.640;8.894;2023-04-08T07:00:09;96478.56;;;9.06;88.64
3960;BME280;1994;48.640;8.894;2023-04-08T07:02:35;96482.16;;;9.05;88.89
3960;BME280;1994;48.640;8.894;2023-04-08T07:05:01;96484.81;;;9.16;89.48
3960;BME280;1994;48.640;8.894;2023-04-08T07:07:27;96482.44;;;9.15;88.24
3960;BME280;1994;48.640;8.894;2023-04-08T07:09:52;96492.78;;;9.15;88.84
3960;BME280;1994;48.640;8.894;2023-04-08T07:12:18;96488.34;;;9.22;88.68
3960;BME280;1994;48.640;8.894;2023-04-08T07:14:44;96487.84;;;9.31;88.71
3960;BME280;1994;48.640;8.894;2023-04-08T07:17:09;96497.66;;;9.59;90.29
3960;BME280;1994;48.640;8.894;2023-04-08T07:19:35;96488.66;;;9.91;89.61
3960;BME280;1994;48.640;8.894;2023-04-08T07:22:02;96492.97;;;9.97;85.91
3960;BME280;1994;48.640;8.894;2023-04-08T07:24:27;96487.34;;;10.00;83.77
3960;BME280;1994;48.640;8.894;2023-04-08T07:26:53;96495.66;;;10.20;84.02
3960;BME280;1994;48.640;8.894;2023-04-08T07:29:21;96497.78;;;10.23;81.68
3960;BME280;1994;48.640;8.894;2023-04-08T07:31:46;96503.09;;;10.16;82.49
3960;BME280;1994;48.640;8.894;2023-04-08T07:34:12;96510.59;;;10.18;83.53
3960;BME280;1994;48.640;8.894;2023-04-08T07:36:38;96503.03;;;10.05;83.41
3960;BME280;1994;48.640;8.894;2023-04-08T07:39:05;96507.38;;;9.93;83.76
3960;BME280;1994;48.640;8.894;2023-04-08T07:41:30;96511.38;;;9.89;82.99
3960;BME280;1994;48.640;8.894;2023-04-08T07:43:56;96511.38;;;9.89;82.92
3960;BME280;1994;48.640;8.894;2023-04-08T07:46:22;96511.84;;;9.86;84.46
3960;BME280;1994;48.640;8.894;2023-04-08T07:48:48;96525.63;;;9.98;84.48
3960;BME280;1994;48.640;8.894;2023-04-08T07:51:13;96513.41;;;9.87;84.11
3960;BME280;1994;48.640;8.894;2023-04-08T07:53:39;96515.25;;;9.98;84.17
3960;BME280;1994;48.640;8.894;2023-04-08T07:56:13;96516.28;;;9.79;83.34
3960;BME280;1994;48.640;8.894;2023-04-08T07:58:39;96524.78;;;9.86;83.69
3960;BME280;1994;48.640;8.894;2023-04-08T08:01:22;96526.38;;;9.69;83.39
3960;BME280;1994;48.640;8.894;2023-04-08T08:03:51;96525.31;;;9.58;84.45
3960;BME280;1994;48.640;8.894;2023-04-08T08:06:17;96525.66;;;9.62;84.66
3960;BME280;1994;48.640;8.894;2023-04-08T08:08:43;96525.25;;;9.65;84.45
3960;BME280;1994;48.640;8.894;2023-04-08T08:11:08;96531.81;;;9.79;84.59
3960;BME280;1994;48.640;8.894;2023-04-08T08:13:34;96531.66;;;9.92;85.29
3960;BME280;1994;48.640;8.894;2023-04-08T08:16:00;96529.63;;;9.94;84.27
3960;BME280;1994;48.640;8.894;2023-04-08T08:18:26;96532.09;;;9.89;83.11
3960;BME280;1994;48.640;8.894;2023-04-08T08:20:51;96532.78;;;9.96;83.85
3960;BME280;1994;48.640;8.894;2023-04-08T08:23:17;96532.78;;;9.96;83.55
3960;BME280;1994;48.640;8.894;2023-04-08T08:25:43;96535.81;;;10.11;84.09
3960;BME280;1994;48.640;8.894;2023-04-08T08:28:09;96533.22;;;10.11;82.16
3960;BME280;1994;48.640;8.894;2023-04-08T08:30:34;96538.53;;;10.16;84.29
3960;BME280;1994;48.640;8.894;2023-04-08T08:33:00;96548.66;;;10.17;83.31
3960;BME280;1994;48.640;8.894;2023-04-08T08:35:26;96550.28;;;10.30;81.68
3960;BME280;1994;48.640;8.894;2023-04-08T08:37:52;96545.78;;;10.37;83.01
3960;BME280;1994;48.640;8.894;2023-04-08T08:40:18;96554.84;;;10.46;80.26
3960;BME280;1994;48.640;8.894;2023-04-08T08:42:51;96552.34;;;10.51;78.92
3960;BME280;1994;48.640;8.894;2023-04-08T08:45:19;96552.47;;;10.44;77.79
3960;BME280;1994;48.640;8.894;2023-04-08T08:47:45;96550.47;;;10.69;78.60
3960;BME280;1994;48.640;8.894;2023-04-08T08:50:11;96549.47;;;10.82;79.00
3960;BME280;1994;48.640;8.894;2023-04-08T08:52:37;96555.69;;;10.81;78.16
3960;BME280;1994;48.640;8.894;2023-04-08T08:55:03;96549.03;;;10.85;77.12
3960;BME280;1994;48.640;8.894;2023-04-08T08:57:29;96556.22;;;10.83;77.01
3960;BME280;1994;48.640;8.894;2023-04-08T08:59:55;96555.78;;;10.86;76.80
3960;BME280;1994;48.640;8.894;2023-04-08T09:02:29;96557.84;;;10.84;76.04
3960;BME280;1994;48.640;8.894;2023-04-08T09:05:02;96562.66;;;10.92;76.23
3960;BME280;1994;48.640;8.894;2023-04-08T09:07:30;96558.03;;;10.94;76.32
3960;BME280;1994;48.640;8.894;2023-04-08T09:09:58;96558.94;;;11.11;74.90
3960;BME280;1994;48.640;8.894;2023-04-08T09:12:25;96559.28;;;11.60;74.20
3960;BME280;1994;48.640;8.894;2023-04-08T09:15:03;96556.59;;;11.95;72.87
3960;BME280;1994;48.640;8.894;2023-04-08T09:17:38;96560.47;;;12.09;72.48
3960;BME280;1994;48.640;8.894;2023-04-08T09:20:09;96558.59;;;12.32;72.23
3960;BME280;1994;48.640;8.894;2023-04-08T09:23:00;96565.69;;;12.37;70.32
3960;BME280;1994;48.640;8.894;2023-04-08T09:25:31;96568.16;;;12.60;69.76
3960;BME280;1994;48.640;8.894;2023-04-08T09:27:58;96557.38;;;12.68;66.41
3960;BME280;1994;48.640;8.894;2023-04-08T09:30:26;96566.50;;;12.54;66.55
3960;BME280;1994;48.640;8.894;2023-04-08T09:32:57;96557.41;;;12.84;65.65
3960;BME280;1994;48.640;8.894;2023-04-08T09:35:24;96561.72;;;12.79;65.14
3960;BME280;1994;48.640;8.894;2023-04-08T09:37:50;96563.28;;;13.46;63.99
3960;BME280;1994;48.640;8.894;2023-04-08T09:40:16;96563.16;;;13.57;64.20
3960;BME280;1994;48.640;8.894;2023-04-08T09:42:47;96560.78;;;13.99;60.17
3960;BME280;1994;48.640;8.894;2023-04-08T09:45:16;96565.63;;;14.12;59.82
3960;BME280;1994;48.640;8.894;2023-04-08T09:48:13;96566.13;;;14.09;57.67
3960;BME280;1994;48.640;8.894;2023-04-08T09:50:49;96565.78;;;14.22;57.14
3960;BME280;1994;48.640;8.894;2023-04-08T09:53:23;96566.03;;;14.20;58.27
3960;BME280;1994;48.640;8.894;2023-04-08T09:55:55;96576.91;;;14.39;57.55
3960;BME280;1994;48.640;8.894;2023-04-08T09:58:27;96574.03;;;14.67;58.85
3960;BME280;1994;48.640;8.894;2023-04-08T10:00:54;96569.06;;;14.97;56.78
3960;BME280;1994;48.640;8.894;2023-04-08T10:03:33;96570.34;;;15.31;53.78
3960;BME280;1994;48.640;8.894;2023-04-08T10:06:01;96568.84;;;15.40;55.06
3960;BME280;1994;48.640;8.894;2023-04-08T10:08:29;96572.50;;;15.39;54.33
3960;BME280;1994;48.640;8.894;2023-04-08T10:10:55;96567.75;;;15.31;53.19
3960;BME280;1994;48.640;8.894;2023-04-08T10:13:23;96575.91;;;15.08;51.80
3960;BME280;1994;48.640;8.894;2023-04-08T10:15:50;96566.34;;;14.82;52.77
3960;BME280;1994;48.640;8.894;2023-04-08T10:20:47;96562.25;;;15.32;54.10
3960;BME280;1994;48.640;8.894;2023-04-08T10:23:16;96568.13;;;15.13;53.48
3960;BME280;1994;48.640;8.894;2023-04-08T10:25:43;96565.34;;;14.88;53.14
3960;BME280;1994;48.640;8.894;2023-04-08T10:30:49;96568.88;;;14.72;53.71
3960;BME280;1994;48.640;8.894;2023-04-08T10:33:30;96568.91;;;14.77;55.04
3960;BME280;1994;48.640;8.894;2023-04-08T10:36:10;96564.75;;;14.81;54.80
3960;BME280;1994;48.640;8.894;2023-04-08T10:38:37;96564.59;;;14.61;54.19
3960;BME280;1994;48.640;8.894;2023-04-08T10:41:03;96563.19;;;14.27;55.40
3960;BME280;1994;48.640;8.894;2023-04-08T10:43:35;96564.00;;;14.06;56.03
3960;BME280;1994;48.640;8.894;2023-04-08T10:46:03;96571.31;;;14.09;55.03
3960;BME280;1994;48.640;8.894;2023-04-08T10:48:29;96569.63;;;13.98;55.94
3960;BME280;1994;48.640;8.894;2023-04-08T10:51:03;96556.78;;;13.91;56.77
3960;BME280;1994;48.640;8.894;2023-04-08T10:53:35;96561.28;;;13.96;56.54
3960;BME280;1994;48.640;8.894;2023-04-08T10:56:12;96558.81;;;14.06;55.49
3960;BME280;1994;48.640;8.894;2023-04-08T10:58:53;96565.16;;;13.72;52.72
3960;BME280;1994;48.640;8.894;2023-04-08T11:01:23;96556.19;;;13.63;56.31
3960;BME280;1994;48.640;8.894;2023-04-08T11:03:49;96563.19;;;13.41;55.78
3960;BME280;1994;48.640;8.894;2023-04-08T11:06:15;96562.09;;;13.37;55.63
3960;BME280;1994;48.640;8.894;2023-04-08T11:08:42;96563.53;;;13.28;56.08
3960;BME280;1994;48.640;8.894;2023-04-08T11:11:09;96575.19;;;13.42;56.96
3960;BME280;1994;48.640;8.894;2023-04-08T11:13:41;96560.69;;;13.29;56.67
3960;BME280;1994;48.640;8.894;2023-04-08T11:16:08;96563.72;;;13.21;57.13
3960;BME280;1994;48.640;8.894;2023-04-08T11:18:34;96556.94;;;13.04;57.88
3960;BME280;1994;48.640;8.894;2023-04-08T11:21:02;96557.47;;;13.06;56.00
3960;BME280;1994;48.640;8.894;2023-04-08T11:23:28;96557.25;;;12.91;55.14
3960;BME280;1994;48.640;8.894;2023-04-08T11:25:54;96556.13;;;12.87;54.67
3960;BME280;1994;48.640;8.894;2023-04-08T11:28:21;96561.94;;;12.94;54.54
3960;BME280;1994;48.640;8.894;2023-04-08T11:30:47;96556.75;;;12.94;55.15
3960;BME280;1994;48.640;8.894;2023-04-08T11:33:14;96553.13;;;12.95;56.72
3960;BME280;1994;48.640;8.894;2023-04-08T11:35:41;96556.13;;;12.87;57.15
3960;BME280;1994;48.640;8.894;2023-04-08T11:38:10;96550.16;;;12.70;55.82
3960;BME280;1994;48.640;8.894;2023-04-08T11:40:37;96557.84;;;12.81;58.29
3960;BME280;1994;48.640;8.894;2023-04-08T11:43:13;96553.81;;;12.74;56.12
3960;BME280;1994;48.640;8.894;2023-04-08T11:45:41;96551.72;;;12.71;55.13
3960;BME280;1994;48.640;8.894;2023-04-08T11:48:12;96555.66;;;12.73;54.12
3960;BME280;1994;48.640;8.894;2023-04-08T11:50:39;96557.59;;;12.50;55.55
3960;BME280;1994;48.640;8.894;2023-04-08T11:53:20;96559.56;;;12.43;56.68
3960;BME280;1994;48.640;8.894;2023-04-08T11:55:46;96559.41;;;12.49;56.53
3960;BME280;1994;48.640;8.894;2023-04-08T11:58:13;96560.19;;;12.50;57.57
3960;BME280;1994;48.640;8.894;2023-04-08T12:00:39;96567.09;;;12.44;55.97
3960;BME280;1994;48.640;8.894;2023-04-08T12:03:06;96563.81;;;12.49;56.80
3960;BME280;1994;48.640;8.894;2023-04-08T12:05:32;96563.63;;;12.39;57.76
3960;BME280;1994;48.640;8.894;2023-04-08T12:07:57;96564.56;;;12.33;57.37
3960;BME280;1994;48.640;8.894;2023-04-08T12:10:23;96566.13;;;12.17;57.09
3960;BME280;1994;48.640;8.894;2023-04-08T12:12:52;96567.53;;;12.25;58.42
3960;BME280;1994;48.640;8.894;2023-04-08T12:15:18;96569.28;;;12.36;58.41
3960;BME280;1994;48.640;8.894;2023-04-08T12:17:43;96562.91;;;12.27;57.99
3960;BME280;1994;48.640;8.894;2023-04-08T12:20:10;96560.50;;;12.37;58.62
3960;BME280;1994;48.640;8.894;2023-04-08T12:22:37;96562.53;;;12.35;58.28
3960;BME280;1994;48.640;8.894;2023-04-08T12:25:03;96568.19;;;12.32;58.87
3960;BME280;1994;48.640;8.894;2023-04-08T12:27:30;96562.72;;;12.45;58.34
3960;BME280;1994;48.640;8.894;2023-04-08T12:29:58;96568.22;;;12.48;57.78
3960;BME280;1994;48.640;8.894;2023-04-08T12:32:25;96566.34;;;12.44;56.85
3960;BME280;1994;48.640;8.894;2023-04-08T12:34:51;96561.88;;;12.28;57.47
3960;BME280;1994;48.640;8.894;2023-04-08T12:37:20;96565.59;;;12.32;57.85
3960;BME280;1994;48.640;8.894;2023-04-08T12:39:46;96569.03;;;12.49;58.56
3960;BME280;1994;48.640;8.894;2023-04-08T12:42:12;96571.22;;;12.57;56.96
3960;BME280;1994;48.640;8.894;2023-04-08T12:44:38;96566.69;;;12.36;57.48
3960;BME280;1994;48.640;8.894;2023-04-08T12:47:04;96565.06;;;12.46;57.16
3960;BME280;1994;48.640;8.894;2023-04-08T12:49:30;96568.66;;;12.29;57.48
3960;BME280;1994;48.640;8.894;2023-04-08T12:51:55;96564.28;;;12.46;57.20
3960;BME280;1994;48.640;8.894;2023-04-08T12:54:21;96567.59;;;12.58;56.13
3960;BME280;1994;48.640;8.894;2023-04-08T12:56:47;96565.66;;;12.65;56.77
3960;BME280;1994;48.640;8.894;2023-04-08T12:59:13;96565.75;;;12.70;56.40
3960;BME280;1994;48.640;8.894;2023-04-08T13:01:39;96567.22;;;12.66;57.02
3960;BME280;1994;48.640;8.894;2023-04-08T13:04:05;96560.81;;;12.57;55.71
3960;BME280;1994;48.640;8.894;2023-04-08T13:06:31;96566.13;;;12.62;55.68
3960;BME280;1994;48.640;8.894;2023-04-08T13:08:56;96562.13;;;12.71;54.98
3960;BME280;1994;48.640;8.894;2023-04-08T13:11:22;96560.50;;;12.53;53.53
3960;BME280;1994;48.640;8.894;2023-04-08T13:13:48;96561.44;;;12.47;53.37
3960;BME280;1994;48.640;8.894;2023-04-08T13:16:15;96567.44;;;12.48;53.70
3960;BME280;1994;48.640;8.894;2023-04-08T13:18:41;96565.22;;;12.40;53.79
3960;BME280;1994;48.640;8.894;2023-04-08T13:21:07;96558.91;;;12.36;53.68
3960;BME280;1994;48.640;8.894;2023-04-08T13:23:34;96561.25;;;12.21;54.88
3960;BME280;1994;48.640;8.894;2023-04-08T13:26:00;96556.16;;;12.26;54.17
3960;BME280;1994;48.640;8.894;2023-04-08T13:28:26;96559.84;;;12.30;54.69
3960;BME280;1994;48.640;8.894;2023-04-08T13:30:51;96550.13;;;12.37;54.21
3960;BME280;1994;48.640;8.894;2023-04-08T13:33:18;96556.41;;;12.41;54.36
3960;BME280;1994;48.640;8.894;2023-04-08T13:35:44;96552.31;;;12.45;54.56
3960;BME280;1994;48.640;8.894;2023-04-08T13:38:09;96552.00;;;12.58;55.90
3960;BME280;1994;48.640;8.894;2023-04-08T13:40:35;96547.78;;;12.68;54.19
3960;BME280;1994;48.640;8.894;2023-04-08T13:43:01;96543.69;;;12.72;54.16
3960;BME280;1994;48.640;8.894;2023-04-08T13:45:28;96554.41;;;12.76;55.50